KORL/ORL METAR and TAF weather

Enter ICAO airport designator
Station Type Date Time Source
KORL METAR 2020/02/19 14:53 UTC NOAA

KORL 191453Z 19004KT 10SM SCT050 OVC075 25/21 A3021 RMK AO2 SLP234 T02500211 51015


Station Type Date Time Source
KORL Decoded METAR 2020/02/19 14:53 UTC NOAA

ORLANDO EXECUTIVE AIRPORT, FL, United States (KORL) 28-33N 081-20W 37M
Feb 19, 2020 - 09:53 AM EST / 2020.02.19 1453 UTC
Wind: from the S (190 degrees) at 5 MPH (4 KT):0
Visibility: 10 mile(s):0
Sky conditions: overcast
Temperature: 77.0 F (25.0 C)
Dew Point: 70.0 F (21.1 C)
Relative Humidity: 78%
Pressure (altimeter): 30.21 in. Hg (1023 hPa)
Pressure tendency: 0.04 inches (1.5 hPa) higher than three hours ago
ob: KORL 191453Z 19004KT 10SM SCT050 OVC075 25/21 A3021 RMK AO2 SLP234 T02500211 51015
cycle: 15

Station Type Date Time Source
KORL TAF UTC NOAA

Error!

Example: see airport list